Time;durP1;ratioP1;P1;durP2;ratioP2;P2;SDS_P1;SDS_P2;PMS_P1;PMS_P2;Temp;Humidity;BMP_temperature;BMP_pressure;BME280_temperature;BME280_humidity;BME280_pressure;Samples;Min_cycle;Max_cycle;Signal;HPM_P1;HPM_P2
2023/03/08 00:01:13;;;;;;;;;;;25.30;37.10;;;;;;6303866;22;19938;-79
2023/03/08 00:03:40;;;;;;;;;;;25.30;35.80;;;;;;6247997;22;19926;-77
2023/03/08 00:06:07;;;;;;;;;;;25.40;37.00;;;;;;6304547;22;20226;-77
2023/03/08 00:08:33;;;;;;;;;;;25.40;36.30;;;;;;6303306;22;20381;-78
2023/03/08 00:11:03;;;;;;;;;;;25.50;36.70;;;;;;6302920;22;20334;-80
2023/03/08 00:13:30;;;;;;;;;;;25.50;36.10;;;;;;6303597;22;19989;-78
2023/03/08 00:16:00;;;;;;;;;;;25.50;35.20;;;;;;6275277;22;20246;-77
2023/03/08 00:18:27;;;;;;;;;;;25.50;35.00;;;;;;6301732;22;19910;-77
2023/03/08 00:21:04;;;;;;;;;;;25.50;35.10;;;;;;6303430;22;20322;-78
2023/03/08 00:23:30;;;;;;;;;;;25.60;34.00;;;;;;6250097;22;20334;-76
2023/03/08 00:25:57;;;;;;;;;;;25.60;34.70;;;;;;6302445;22;19911;-77
2023/03/08 00:28:24;;;;;;;;;;;25.60;35.20;;;;;;6303435;22;20228;-75
2023/03/08 00:31:00;;;;;;;;;;;25.70;35.00;;;;;;6303803;22;19942;-79
2023/03/08 00:33:27;;;;;;;;;;;25.70;35.20;;;;;;6303698;22;20364;-78
2023/03/08 00:35:57;;;;;;;;;;;25.80;35.00;;;;;;6303199;22;19911;-75
2023/03/08 00:38:24;;;;;;;;;;;25.80;35.60;;;;;;6303663;22;20182;-76
2023/03/08 00:40:51;;;;;;;;;;;25.80;34.00;;;;;;6303247;22;19907;-76
2023/03/08 00:43:17;;;;;;;;;;;25.90;34.70;;;;;;6303462;22;19998;-75
2023/03/08 00:45:44;;;;;;;;;;;25.90;34.30;;;;;;6302931;22;19911;-76
2023/03/08 00:48:11;;;;;;;;;;;26.00;34.20;;;;;;6302811;22;19911;-75
2023/03/08 00:50:38;;;;;;;;;;;26.00;33.50;;;;;;6273802;22;20348;-75
2023/03/08 00:53:05;;;;;;;;;;;26.00;33.80;;;;;;6302164;22;19998;-76
2023/03/08 00:55:31;;;;;;;;;;;26.00;34.60;;;;;;6304445;22;19956;-76
2023/03/08 00:57:58;;;;;;;;;;;26.10;35.40;;;;;;6276642;22;19903;-76
2023/03/08 01:00:25;;;;;;;;;;;26.10;34.60;;;;;;6305727;22;20246;-78
2023/03/08 01:02:51;;;;;;;;;;;26.10;35.30;;;;;;6306386;22;19911;-76
2023/03/08 01:05:18;;;;;;;;;;;26.20;34.40;;;;;;6305710;22;20246;-76
2023/03/08 01:07:45;;;;;;;;;;;26.20;35.30;;;;;;6306958;22;19907;-77
2023/03/08 01:10:12;;;;;;;;;;;26.20;35.30;;;;;;6279083;22;20278;-77
2023/03/08 01:12:38;;;;;;;;;;;26.30;35.30;;;;;;6279382;22;19956;-77
2023/03/08 01:15:05;;;;;;;;;;;26.20;34.90;;;;;;6306459;22;19907;-77
2023/03/08 01:17:32;;;;;;;;;;;26.30;33.70;;;;;;6307045;22;19911;-77
2023/03/08 01:19:59;;;;;;;;;;;26.30;34.50;;;;;;6305424;22;20347;-77
2023/03/08 01:22:26;;;;;;;;;;;26.30;33.10;;;;;;6306171;22;20238;-76
2023/03/08 01:24:52;;;;;;;;;;;26.40;32.30;;;;;;6306035;22;19911;-77
2023/03/08 01:27:19;;;;;;;;;;;26.50;33.20;;;;;;6278863;22;19907;-77
2023/03/08 02:00:44;;;;;;;;;;;26.70;31.60;;;;;;6306120;22;20058;-77
2023/03/08 02:03:11;;;;;;;;;;;26.70;31.70;;;;;;6278485;22;19919;-77
2023/03/08 02:05:42;;;;;;;;;;;26.80;32.60;;;;;;6306003;22;19907;-77
2023/03/08 02:08:09;;;;;;;;;;;26.80;32.30;;;;;;6277806;22;19903;-76
2023/03/08 02:10:35;;;;;;;;;;;26.80;32.80;;;;;;6279105;22;19961;-77
2023/03/08 02:13:03;;;;;;;;;;;26.80;33.20;;;;;;6278407;22;19903;-76
2023/03/08 02:15:30;;;;;;;;;;;26.80;32.80;;;;;;6277391;22;19910;-76
2023/03/08 02:17:56;;;;;;;;;;;26.80;32.80;;;;;;6305106;22;19914;-76
2023/03/08 02:20:24;;;;;;;;;;;26.80;33.20;;;;;;6305324;22;19907;-76
2023/03/08 02:22:52;;;;;;;;;;;26.80;31.40;;;;;;6277788;22;19978;-76
2023/03/08 02:25:22;;;;;;;;;;;26.90;31.90;;;;;;6305360;22;20293;-77
2023/03/08 02:27:49;;;;;;;;;;;26.90;31.50;;;;;;6304956;22;19907;-76
2023/03/08 02:30:17;;;;;;;;;;;26.90;30.80;;;;;;6278681;22;20729;-76
2023/03/08 02:32:43;;;;;;;;;;;27.00;30.90;;;;;;6305186;22;19946;-77
2023/03/08 02:35:10;;;;;;;;;;;27.00;32.00;;;;;;6304919;22;20402;-77
2023/03/08 02:37:37;;;;;;;;;;;27.10;32.40;;;;;;6305124;22;19902;-77
2023/03/08 02:40:04;;;;;;;;;;;27.10;31.70;;;;;;6304509;22;19990;-76
2023/03/08 02:42:30;;;;;;;;;;;27.10;31.20;;;;;;6305806;22;19907;-76
2023/03/08 02:44:57;;;;;;;;;;;27.10;33.30;;;;;;6307530;22;19934;-75
2023/03/08 02:47:24;;;;;;;;;;;27.10;36.10;;;;;;6307803;22;19910;-76
2023/03/08 02:49:50;;;;;;;;;;;27.10;40.10;;;;;;6307317;22;20244;-77
2023/03/08 02:52:17;;;;;;;;;;;27.10;40.70;;;;;;6307663;22;19907;-77
2023/03/08 02:54:44;;;;;;;;;;;27.10;40.70;;;;;;6307139;22;20242;-76
2023/03/08 02:57:11;;;;;;;;;;;27.00;40.70;;;;;;6306573;22;19903;-76
2023/03/08 17:39:34;;;;;;;;;;;20.40;54.00;;;;;;6307717;22;19998;-72
2023/03/08 17:42:00;;;;;;;;;;;20.40;54.20;;;;;;6337139;22;19971;-72
2023/03/08 17:44:27;;;;;;;;;;;20.30;54.70;;;;;;6336886;22;20338;-72
2023/03/08 17:46:54;;;;;;;;;;;20.30;55.30;;;;;;6337256;22;19956;-71
2023/03/08 17:49:23;;;;;;;;;;;20.30;55.10;;;;;;6338018;22;19907;-71
2023/03/08 17:51:50;;;;;;;;;;;20.30;54.90;;;;;;6337898;22;20264;-72
2023/03/08 17:54:17;;;;;;;;;;;20.20;54.90;;;;;;6335541;22;19909;-72
2023/03/08 17:56:44;;;;;;;;;;;20.20;54.70;;;;;;6337249;22;19969;-72
2023/03/08 17:59:14;;;;;;;;;;;20.20;55.20;;;;;;6337458;22;19910;-72
2023/03/08 18:01:41;;;;;;;;;;;20.20;54.90;;;;;;6337488;22;19907;-72
2023/03/08 18:04:08;;;;;;;;;;;20.20;55.10;;;;;;6336704;22;19914;-72
2023/03/08 18:06:37;;;;;;;;;;;20.20;55.70;;;;;;6337231;22;19906;-72
2023/03/08 18:09:05;;;;;;;;;;;20.10;55.80;;;;;;6337255;22;19902;-71
2023/03/08 18:11:36;;;;;;;;;;;20.10;55.40;;;;;;6338280;22;19977;-72
2023/03/08 18:14:04;;;;;;;;;;;20.10;55.50;;;;;;6337706;22;19914;-72
2023/03/08 18:16:31;;;;;;;;;;;20.10;55.60;;;;;;6312351;22;20237;-73
2023/03/08 18:18:58;;;;;;;;;;;20.10;55.50;;;;;;6339695;22;19907;-72
2023/03/08 18:21:25;;;;;;;;;;;20.00;55.60;;;;;;6339585;22;19981;-73
2023/03/08 18:23:54;;;;;;;;;;;20.00;55.30;;;;;;6339336;22;19910;-74
2023/03/08 18:26:21;;;;;;;;;;;20.00;57.00;;;;;;6339679;22;19906;-72
2023/03/08 18:28:48;;;;;;;;;;;20.00;56.20;;;;;;6338830;22;20397;-72
2023/03/08 18:31:16;;;;;;;;;;;20.00;56.20;;;;;;6339195;22;19902;-72
2023/03/08 18:33:43;;;;;;;;;;;20.00;55.90;;;;;;6338812;22;19990;-72
2023/03/08 18:36:09;;;;;;;;;;;19.90;56.00;;;;;;6339138;22;19906;-72
2023/03/08 18:38:36;;;;;;;;;;;19.90;55.90;;;;;;6339508;22;19909;-72
2023/03/08 18:41:12;;;;;;;;;;;19.90;56.00;;;;;;6318474;22;20289;-72
2023/03/08 18:43:39;;;;;;;;;;;19.80;56.80;;;;;;6307390;22;19918;-72
2023/03/08 18:46:09;;;;;;;;;;;19.90;56.10;;;;;;6306024;22;19903;-72
2023/03/08 18:48:35;;;;;;;;;;;19.80;56.30;;;;;;6308099;22;20337;-72
2023/03/08 18:51:02;;;;;;;;;;;19.80;56.50;;;;;;6307883;22;19906;-72
2023/03/08 18:53:29;;;;;;;;;;;19.80;56.50;;;;;;6280645;22;19903;-72
2023/03/08 18:55:57;;;;;;;;;;;19.80;56.40;;;;;;6307469;22;20215;-72
2023/03/08 18:58:24;;;;;;;;;;;19.80;56.50;;;;;;6307686;22;19903;-72
2023/03/08 19:00:51;;;;;;;;;;;19.70;56.10;;;;;;6307470;22;19907;-72
2023/03/08 19:03:18;;;;;;;;;;;19.70;56.60;;;;;;6308145;22;19926;-72
2023/03/08 19:05:45;;;;;;;;;;;19.70;56.90;;;;;;6307503;22;19911;-72
2023/03/08 19:08:11;;;;;;;;;;;19.70;57.20;;;;;;6307204;22;19960;-72
2023/03/08 19:10:38;;;;;;;;;;;19.60;57.20;;;;;;6307660;22;20211;-72
2023/03/08 19:13:05;;;;;;;;;;;19.60;57.50;;;;;;6307920;22;19910;-72
2023/03/08 19:15:35;;;;;;;;;;;19.50;57.60;;;;;;6307858;22;19910;-72
2023/03/08 19:18:02;;;;;;;;;;;19.50;57.70;;;;;;6280264;22;19985;-72
2023/03/08 19:20:28;;;;;;;;;;;19.60;57.70;;;;;;6308000;22;19902;-71
2023/03/08 19:22:55;;;;;;;;;;;19.60;57.80;;;;;;6307633;22;20246;-71
2023/03/08 19:25:22;;;;;;;;;;;19.50;57.70;;;;;;6307716;22;19911;-72
2023/03/08 19:27:49;;;;;;;;;;;19.50;57.70;;;;;;6308254;22;19910;-72
2023/03/08 19:30:15;;;;;;;;;;;19.50;58.00;;;;;;6308053;22;19982;-72
2023/03/08 19:32:42;;;;;;;;;;;19.50;57.90;;;;;;6307737;22;19907;-72
2023/03/08 19:35:09;;;;;;;;;;;19.50;58.80;;;;;;6307692;22;19907;-72
2023/03/08 19:37:36;;;;;;;;;;;19.50;58.20;;;;;;6307428;22;19903;-72
2023/03/08 19:40:04;;;;;;;;;;;19.50;58.60;;;;;;6307200;22;19921;-72
2023/03/08 19:42:30;;;;;;;;;;;19.50;58.50;;;;;;6307335;22;19999;-71
2023/03/08 19:44:57;;;;;;;;;;;19.50;59.80;;;;;;6307244;22;19911;-72
2023/03/08 19:47:24;;;;;;;;;;;19.40;59.10;;;;;;6307646;22;19903;-72
2023/03/08 19:49:50;;;;;;;;;;;19.30;58.00;;;;;;6307393;22;19903;-72
2023/03/08 19:52:17;;;;;;;;;;;19.30;59.30;;;;;;6307002;22;19977;-71
2023/03/08 19:54:45;;;;;;;;;;;19.30;59.40;;;;;;6307349;22;19914;-71
2023/03/08 19:57:12;;;;;;;;;;;19.40;59.40;;;;;;6307253;22;19956;-72
2023/03/08 19:59:39;;;;;;;;;;;19.40;59.20;;;;;;6307043;22;19914;-72
2023/03/08 20:02:05;;;;;;;;;;;19.40;58.70;;;;;;6307141;22;19907;-72
2023/03/08 20:04:32;;;;;;;;;;;19.40;59.10;;;;;;6307208;22;19911;-72
2023/03/08 20:06:59;;;;;;;;;;;19.40;59.40;;;;;;6307273;22;19903;-71
2023/03/08 20:09:26;;;;;;;;;;;19.40;58.80;;;;;;6307533;22;19909;-72
2023/03/08 20:11:53;;;;;;;;;;;19.50;59.10;;;;;;6307285;22;19948;-72
2023/03/08 20:14:20;;;;;;;;;;;19.50;59.00;;;;;;6306908;22;20311;-71
2023/03/08 20:16:47;;;;;;;;;;;19.50;59.50;;;;;;6307157;22;20370;-71
2023/03/08 20:19:16;;;;;;;;;;;19.50;60.10;;;;;;6306937;22;19903;-71
2023/03/08 20:21:43;;;;;;;;;;;19.50;59.60;;;;;;6306617;22;19990;-71
2023/03/08 20:24:10;;;;;;;;;;;19.50;59.70;;;;;;6305941;22;20321;-71
2023/03/08 20:26:37;;;;;;;;;;;19.50;59.30;;;;;;6307718;22;19907;-72
2023/03/08 20:29:04;;;;;;;;;;;19.60;59.30;;;;;;6306656;22;19931;-72
2023/03/08 20:31:30;;;;;;;;;;;19.60;59.10;;;;;;6307109;22;19906;-72
2023/03/08 20:33:57;;;;;;;;;;;19.70;58.70;;;;;;6306648;22;19903;-72
2023/03/08 20:36:24;;;;;;;;;;;19.70;59.00;;;;;;6306375;22;20226;-72
2023/03/08 20:38:50;;;;;;;;;;;19.70;58.40;;;;;;6306299;22;19906;-72
2023/03/08 20:41:20;;;;;;;;;;;19.70;58.70;;;;;;6306836;22;19985;-72
2023/03/08 20:43:47;;;;;;;;;;;19.80;58.50;;;;;;6307006;22;19942;-72
2023/03/08 20:46:15;;;;;;;;;;;19.80;58.80;;;;;;6306569;22;19903;-72
2023/03/08 20:48:42;;;;;;;;;;;19.90;58.90;;;;;;6306277;22;19903;-72
2023/03/08 20:51:10;;;;;;;;;;;19.80;58.80;;;;;;6306013;22;19941;-72
2023/03/08 20:53:37;;;;;;;;;;;19.90;58.60;;;;;;6307464;22;19914;-72
2023/03/08 20:56:08;;;;;;;;;;;20.00;58.80;;;;;;6306966;22;20298;-71
2023/03/08 20:58:35;;;;;;;;;;;20.00;58.90;;;;;;6306583;22;19903;-71
2023/03/08 21:01:08;;;;;;;;;;;20.10;59.00;;;;;;6306207;22;20025;-71
2023/03/08 21:03:35;;;;;;;;;;;20.10;59.00;;;;;;6305900;22;19911;-73
2023/03/08 21:06:01;;;;;;;;;;;20.10;58.60;;;;;;6306274;22;19903;-71
2023/03/08 21:08:28;;;;;;;;;;;20.20;58.40;;;;;;6306835;22;20273;-71
2023/03/08 21:10:58;;;;;;;;;;;20.20;58.50;;;;;;6306997;22;19929;-71
2023/03/08 21:13:24;;;;;;;;;;;20.20;59.00;;;;;;6306177;22;19985;-71
2023/03/08 21:15:51;;;;;;;;;;;20.20;59.00;;;;;;6306698;22;20326;-74
2023/03/08 21:18:18;;;;;;;;;;;20.30;59.30;;;;;;6305729;22;19913;-74
2023/03/08 21:20:44;;;;;;;;;;;20.30;58.70;;;;;;6306832;22;20336;-74
2023/03/08 21:23:11;;;;;;;;;;;20.30;59.30;;;;;;6306243;22;19957;-74
2023/03/08 21:25:38;;;;;;;;;;;20.40;58.90;;;;;;6306092;22;19911;-74
2023/03/08 21:28:04;;;;;;;;;;;20.40;58.60;;;;;;6306824;22;20337;-74
2023/03/08 21:30:31;;;;;;;;;;;20.50;57.40;;;;;;6306561;22;19907;-75
2023/03/08 21:32:58;;;;;;;;;;;20.50;57.60;;;;;;6306729;22;19902;-75
2023/03/08 21:35:25;;;;;;;;;;;20.50;57.20;;;;;;6306314;22;19938;-74
2023/03/08 21:37:51;;;;;;;;;;;20.60;57.50;;;;;;6306782;22;20318;-74
2023/03/08 21:40:18;;;;;;;;;;;20.70;57.10;;;;;;6306507;22;19990;-74
2023/03/08 21:42:45;;;;;;;;;;;20.70;57.30;;;;;;6306416;22;19948;-75
2023/03/08 21:45:11;;;;;;;;;;;20.70;57.30;;;;;;6306277;22;19938;-74
2023/03/08 21:47:38;;;;;;;;;;;20.80;58.00;;;;;;6306523;22;19968;-75
2023/03/08 21:50:05;;;;;;;;;;;20.80;57.50;;;;;;6306456;22;20016;-75
2023/03/08 21:52:32;;;;;;;;;;;20.80;57.50;;;;;;6306492;22;19911;-75
2023/03/08 21:54:59;;;;;;;;;;;20.80;57.50;;;;;;6306526;22;19903;-74
2023/03/08 21:57:25;;;;;;;;;;;20.90;57.00;;;;;;6306308;22;19903;-75
2023/03/08 21:59:52;;;;;;;;;;;21.00;57.20;;;;;;6306333;22;19907;-74
2023/03/08 22:02:19;;;;;;;;;;;21.00;57.80;;;;;;6306262;22;19903;-75
2023/03/08 22:04:45;;;;;;;;;;;21.10;56.60;;;;;;6306331;22;19911;-75
2023/03/08 22:07:12;;;;;;;;;;;21.10;56.10;;;;;;6306386;22;19926;-75
2023/03/08 22:09:39;;;;;;;;;;;21.20;56.20;;;;;;6306412;22;19981;-74
2023/03/08 22:12:06;;;;;;;;;;;21.20;55.90;;;;;;6306271;22;19909;-74
2023/03/08 22:14:33;;;;;;;;;;;21.20;54.70;;;;;;6306521;22;19907;-75
2023/03/08 22:16:59;;;;;;;;;;;21.30;55.00;;;;;;6306110;22;19914;-74
2023/03/08 22:19:26;;;;;;;;;;;21.30;54.90;;;;;;6306393;22;19909;-75
2023/03/08 22:21:53;;;;;;;;;;;21.40;54.90;;;;;;6305935;22;19985;-74
2023/03/08 22:24:19;;;;;;;;;;;21.50;54.90;;;;;;6305360;22;19910;-73
2023/03/08 22:26:46;;;;;;;;;;;21.60;54.80;;;;;;6306005;22;19903;-74
2023/03/08 22:29:13;;;;;;;;;;;21.70;54.00;;;;;;6306010;22;20322;-74
2023/03/08 22:31:40;;;;;;;;;;;21.70;54.20;;;;;;6306438;22;19964;-74
2023/03/08 22:34:06;;;;;;;;;;;21.80;54.00;;;;;;6306128;22;19903;-73
2023/03/08 22:36:33;;;;;;;;;;;21.90;53.30;;;;;;6306482;22;19934;-74
2023/03/08 22:39:00;;;;;;;;;;;21.90;53.00;;;;;;6305950;22;20325;-75
2023/03/08 22:41:27;;;;;;;;;;;22.00;53.70;;;;;;6305939;22;19959;-75
2023/03/08 22:43:54;;;;;;;;;;;22.20;54.00;;;;;;6305597;22;20356;-75
2023/03/08 22:46:24;;;;;;;;;;;22.30;53.90;;;;;;6306005;22;19911;-75
2023/03/08 22:48:51;;;;;;;;;;;22.30;52.10;;;;;;6306095;22;19907;-75
2023/03/08 22:51:18;;;;;;;;;;;22.40;52.10;;;;;;6305505;22;20238;-75
2023/03/08 22:53:45;;;;;;;;;;;22.50;52.50;;;;;;6306294;22;19910;-75
2023/03/08 22:56:19;;;;;;;;;;;22.60;51.80;;;;;;6278757;22;20234;-75
2023/03/08 22:58:46;;;;;;;;;;;22.60;51.50;;;;;;6306665;22;19949;-75
2023/03/08 23:01:14;;;;;;;;;;;22.70;51.40;;;;;;6307892;22;19903;-75
2023/03/08 23:03:41;;;;;;;;;;;22.80;51.30;;;;;;6307740;22;19969;-73
2023/03/08 23:06:07;;;;;;;;;;;22.90;50.30;;;;;;6304549;22;19989;-72
2023/03/08 23:08:34;;;;;;;;;;;23.00;50.50;;;;;;6305305;22;19972;-72
2023/03/08 23:11:01;;;;;;;;;;;23.20;49.60;;;;;;6303853;22;19918;-75
2023/03/08 23:13:27;;;;;;;;;;;23.20;49.50;;;;;;6304705;22;20308;-73
2023/03/08 23:15:54;;;;;;;;;;;23.30;50.60;;;;;;6304633;22;19930;-74
2023/03/08 23:18:21;;;;;;;;;;;23.30;50.30;;;;;;6304338;22;19907;-76
2023/03/08 23:20:47;;;;;;;;;;;23.40;49.20;;;;;;6304532;22;19907;-74
2023/03/08 23:23:14;;;;;;;;;;;23.30;49.90;;;;;;6304522;22;19907;-74
2023/03/08 23:25:42;;;;;;;;;;;23.30;49.10;;;;;;6304037;22;19946;-75
2023/03/08 23:28:09;;;;;;;;;;;23.40;48.80;;;;;;6304732;22;20276;-75
2023/03/08 23:30:36;;;;;;;;;;;23.30;48.00;;;;;;6304669;22;19907;-73
2023/03/08 23:33:03;;;;;;;;;;;23.30;48.30;;;;;;6304046;22;20292;-75
2023/03/08 23:35:30;;;;;;;;;;;23.30;48.80;;;;;;6304447;22;19903;-75
2023/03/08 23:37:56;;;;;;;;;;;23.30;48.70;;;;;;6303863;22;19945;-74
2023/03/08 23:40:23;;;;;;;;;;;23.40;49.50;;;;;;6303693;22;20022;-74
2023/03/08 23:42:50;;;;;;;;;;;23.40;48.70;;;;;;6303890;22;20349;-75
2023/03/08 23:45:16;;;;;;;;;;;23.30;49.00;;;;;;6303637;22;19915;-74
2023/03/08 23:47:43;;;;;;;;;;;23.40;48.80;;;;;;6304190;22;19907;-74
2023/03/08 23:50:10;;;;;;;;;;;23.40;49.80;;;;;;6304703;22;20107;-75
2023/03/08 23:52:37;;;;;;;;;;;23.50;50.20;;;;;;6304817;22;19910;-75
2023/03/08 23:55:04;;;;;;;;;;;23.60;48.30;;;;;;6303407;22;19903;-76
2023/03/08 23:57:31;;;;;;;;;;;23.60;50.60;;;;;;6303816;22;19934;-76
2023/03/08 23:59:57;;;;;;;;;;;23.70;49.60;;;;;;6304044;22;20010;-76
